createdAt,value
2023-04-18T00:00:22.795Z,0.70
2023-04-18T00:02:55.092Z,1.00
2023-04-18T00:05:23.515Z,0.60
2023-04-18T00:07:52.768Z,0.80
2023-04-18T00:10:20.780Z,0.70
2023-04-18T00:12:48.879Z,1.00
2023-04-18T00:15:17.034Z,0.98
2023-04-18T00:17:44.995Z,0.98
2023-04-18T00:20:14.516Z,0.60
2023-04-18T00:22:43.896Z,0.70
2023-04-18T00:25:12.014Z,0.63
2023-04-18T00:27:40.140Z,0.80
2023-04-18T00:30:09.513Z,1.02
2023-04-18T00:32:37.551Z,0.88
2023-04-18T00:35:06.330Z,0.82
2023-04-18T00:37:35.470Z,0.88
2023-04-18T00:40:05.596Z,1.08
2023-04-18T00:42:34.793Z,1.33
2023-04-18T00:45:02.628Z,0.70
2023-04-18T00:47:30.460Z,0.65
2023-04-18T00:49:58.384Z,1.90
2023-04-18T00:52:28.005Z,1.52
2023-04-18T00:54:57.537Z,0.90
2023-04-18T00:57:25.916Z,1.17
2023-04-18T00:59:53.764Z,0.65
2023-04-18T01:02:22.242Z,1.13
2023-04-18T01:04:50.264Z,0.90
2023-04-18T01:07:18.190Z,1.23
2023-04-18T01:09:46.274Z,0.80
2023-04-18T01:12:15.780Z,1.05
2023-04-18T01:14:43.641Z,0.95
2023-04-18T01:17:13.326Z,0.70
2023-04-18T01:19:41.686Z,0.77
2023-04-18T01:22:10.426Z,1.30
2023-04-18T01:24:39.720Z,1.65
2023-04-18T01:27:07.609Z,1.58
2023-04-18T01:29:37.252Z,1.10
2023-04-18T01:32:06.960Z,0.80
2023-04-18T01:34:35.106Z,1.38
2023-04-18T01:37:02.955Z,1.70
2023-04-18T01:39:30.939Z,0.80
2023-04-18T01:42:01.291Z,1.40
2023-04-18T01:44:29.115Z,1.55
2023-04-18T01:46:57.063Z,1.35
2023-04-18T01:49:25.006Z,1.70
2023-04-18T01:51:52.826Z,0.93
2023-04-18T01:54:20.649Z,1.00
2023-04-18T01:56:48.508Z,1.33
2023-04-18T01:59:17.672Z,1.30
2023-04-18T02:01:45.533Z,1.10
2023-04-18T02:04:13.599Z,1.55
2023-04-18T02:06:41.647Z,1.00
2023-04-18T02:09:09.507Z,1.77
2023-04-18T02:11:37.327Z,1.25
2023-04-18T02:14:05.962Z,1.05
2023-04-18T02:16:35.284Z,1.02
2023-04-18T02:19:04.780Z,1.00
2023-04-18T02:21:32.641Z,1.83
2023-04-18T02:24:00.469Z,1.40
2023-04-18T02:26:28.250Z,0.60
2023-04-18T02:28:56.060Z,0.98
2023-04-18T02:31:23.946Z,0.90
2023-04-18T02:33:53.063Z,1.08
2023-04-18T02:36:20.869Z,1.58
2023-04-18T02:38:48.702Z,0.98
2023-04-18T02:41:19.355Z,0.93
2023-04-18T02:43:47.326Z,1.58
2023-04-18T02:46:15.228Z,1.35
2023-04-18T02:48:43.068Z,0.68
2023-04-18T02:51:12.254Z,1.77
2023-04-18T02:53:40.243Z,1.58
2023-04-18T02:56:08.778Z,1.45
2023-04-18T02:58:36.887Z,1.27
2023-04-18T03:01:04.761Z,1.52
2023-04-18T03:03:32.691Z,1.08
2023-04-18T03:06:01.151Z,2.00
2023-04-18T03:08:30.391Z,0.95
2023-04-18T03:10:58.281Z,1.92
2023-04-18T03:13:26.317Z,1.30
2023-04-18T03:15:54.359Z,1.75
2023-04-18T03:18:22.209Z,1.60
2023-04-18T03:20:50.028Z,1.35
2023-04-18T03:23:18.006Z,1.40
2023-04-18T03:25:47.476Z,1.00
2023-04-18T03:28:15.444Z,1.70
2023-04-18T03:30:43.698Z,1.40
2023-04-18T03:33:11.516Z,1.63
2023-04-18T03:35:39.337Z,1.20
2023-04-18T03:38:07.206Z,1.45
2023-04-18T03:40:35.212Z,1.73
2023-04-18T03:43:04.401Z,1.48
2023-04-18T03:45:32.261Z,1.70
2023-04-18T03:48:00.176Z,1.90
2023-04-18T03:50:28.476Z,1.63
2023-04-18T03:52:56.327Z,1.77
2023-04-18T03:55:24.128Z,2.00
2023-04-18T03:57:51.976Z,2.85
2023-04-18T04:00:21.573Z,1.98
2023-04-18T04:02:49.424Z,1.95
2023-04-18T04:05:17.504Z,2.83
2023-04-18T04:07:45.479Z,2.53
2023-04-18T04:10:13.347Z,2.33
2023-04-18T04:12:41.166Z,2.55
2023-04-18T04:15:09.902Z,2.13
2023-04-18T04:17:39.090Z,2.10
2023-04-18T04:20:08.304Z,1.70
2023-04-18T04:22:36.610Z,1.23
2023-04-18T04:25:06.446Z,2.08
2023-04-18T04:27:36.725Z,1.85
2023-04-18T04:30:05.190Z,3.03
2023-04-18T04:32:33.227Z,2.70
2023-04-18T04:35:02.400Z,2.35
2023-04-18T04:37:30.226Z,3.03
2023-04-18T04:40:00.619Z,2.28
2023-04-18T04:42:28.549Z,2.35
2023-04-18T04:44:56.475Z,2.10
2023-04-18T04:47:24.406Z,2.13
2023-04-18T04:49:52.328Z,2.60
2023-04-18T04:52:21.534Z,2.08
2023-04-18T04:54:49.349Z,1.77
2023-04-18T04:57:17.246Z,1.95
2023-04-18T04:59:45.071Z,1.60
2023-04-18T05:02:13.095Z,1.85
2023-04-18T05:04:40.973Z,1.70
2023-04-18T05:07:08.925Z,2.40
2023-04-18T05:09:38.102Z,1.70
2023-04-18T05:12:06.533Z,2.35
2023-04-18T05:14:34.330Z,2.42
2023-04-18T05:17:02.647Z,1.98
2023-04-18T05:19:30.861Z,2.70
2023-04-18T05:21:58.700Z,1.95
2023-04-18T05:24:26.737Z,2.83
2023-04-18T05:26:56.873Z,1.67
2023-04-18T05:29:24.724Z,1.33
2023-04-18T05:31:52.569Z,1.35
2023-04-18T05:34:20.648Z,1.65
2023-04-18T05:36:48.581Z,1.15
2023-04-18T05:39:16.667Z,1.40
2023-04-18T05:41:44.512Z,1.20
2023-04-18T05:44:13.639Z,1.25
2023-04-18T05:46:41.620Z,2.25
2023-04-18T05:49:09.640Z,1.30
2023-04-18T05:51:37.487Z,1.23
2023-04-18T05:54:05.343Z,1.45
2023-04-18T05:56:33.180Z,1.30
2023-04-18T05:59:01.004Z,1.88
2023-04-18T06:01:30.172Z,1.77
2023-04-18T06:03:58.367Z,2.15
2023-04-18T06:06:27.245Z,2.20
2023-04-18T06:08:55.580Z,1.65
2023-04-18T06:11:23.466Z,1.52
2023-04-18T06:13:51.275Z,2.05
2023-04-18T06:16:19.272Z,1.75
2023-04-18T06:18:48.424Z,1.50
2023-04-18T06:21:16.239Z,1.77
2023-04-18T06:23:44.092Z,1.52
2023-04-18T06:26:12.690Z,1.00
2023-04-18T06:28:40.660Z,1.77
2023-04-18T06:31:08.813Z,1.70
2023-04-18T06:33:37.652Z,1.45
2023-04-18T06:36:08.818Z,1.52
2023-04-18T06:38:36.682Z,1.45
2023-04-18T06:41:04.865Z,1.25
2023-04-18T06:43:33.060Z,2.40
2023-04-18T06:46:01.145Z,1.70
2023-04-18T06:48:29.026Z,1.52
2023-04-18T06:50:56.812Z,1.40
2023-04-18T06:53:25.968Z,1.30
2023-04-18T06:55:53.895Z,1.60
2023-04-18T06:58:21.669Z,1.48
2023-04-18T07:00:51.840Z,1.20
2023-04-18T07:03:19.854Z,2.50
2023-04-18T07:05:47.896Z,1.85
2023-04-18T07:08:15.714Z,3.08
2023-04-18T07:10:44.981Z,1.33
2023-04-18T07:13:12.750Z,1.67
2023-04-18T07:15:40.830Z,1.83
2023-04-18T07:18:08.717Z,1.50
2023-04-18T07:20:36.564Z,0.90
2023-04-18T07:23:04.698Z,1.80
2023-04-18T07:25:33.055Z,1.40
2023-04-18T07:28:02.299Z,0.85
2023-04-18T07:30:30.338Z,1.20
2023-04-18T07:32:58.307Z,1.23
2023-04-18T07:35:26.104Z,1.50
2023-04-18T07:37:54.453Z,1.00
2023-04-18T07:40:22.702Z,1.48
2023-04-18T07:42:50.490Z,0.85
2023-04-18T07:45:19.895Z,1.80
2023-04-18T07:47:47.822Z,1.30
2023-04-18T07:50:15.721Z,1.00
2023-04-18T07:52:47.572Z,0.93
2023-04-18T07:55:15.729Z,0.75
2023-04-18T07:57:47.063Z,1.58
2023-04-18T08:00:16.622Z,1.35
2023-04-18T08:02:46.364Z,0.80
2023-04-18T08:05:14.315Z,0.70
2023-04-18T08:07:42.281Z,0.57
2023-04-18T08:10:11.408Z,0.98
2023-04-18T08:12:39.609Z,0.80
2023-04-18T08:15:08.778Z,1.15
2023-04-18T08:17:37.534Z,2.90
2023-04-18T08:20:07.898Z,1.15
2023-04-18T08:22:41.226Z,1.50
2023-04-18T08:25:14.763Z,0.93
2023-04-18T08:27:43.259Z,1.02
2023-04-18T08:30:12.112Z,0.70
2023-04-18T08:32:40.313Z,0.70
2023-04-18T08:35:10.255Z,1.17
2023-04-18T08:37:38.195Z,0.85
2023-04-18T08:40:07.458Z,1.35
2023-04-18T08:42:36.121Z,0.90
2023-04-18T08:45:05.098Z,0.60
2023-04-18T08:47:33.002Z,0.50
2023-04-18T08:50:02.451Z,1.88
2023-04-18T08:52:34.116Z,0.95
2023-04-18T08:55:03.818Z,0.65
2023-04-18T08:57:33.211Z,1.33
2023-04-18T09:00:01.890Z,0.70
2023-04-18T09:02:39.082Z,1.00
2023-04-18T09:05:12.943Z,0.45
2023-04-18T09:07:42.754Z,1.73
2023-04-18T09:10:12.523Z,1.17
2023-04-18T09:12:50.226Z,0.98
2023-04-18T09:15:22.457Z,0.80
2023-04-18T09:17:53.278Z,1.02
2023-04-18T09:20:30.561Z,0.80
2023-04-18T09:23:00.645Z,0.82
2023-04-18T09:25:30.101Z,1.00
2023-04-18T09:28:00.928Z,0.60
2023-04-18T09:30:38.218Z,0.80
2023-04-18T09:33:10.036Z,0.70
2023-04-18T09:35:38.295Z,0.45
2023-04-18T09:38:08.869Z,0.85
2023-04-18T09:40:36.782Z,0.75
2023-04-18T09:43:19.074Z,1.38
2023-04-18T09:45:48.007Z,1.00
2023-04-18T09:48:16.153Z,1.00
2023-04-18T09:50:45.337Z,1.30
2023-04-18T09:53:20.662Z,1.02
2023-04-18T09:55:52.147Z,0.50
2023-04-18T09:58:22.518Z,0.65
2023-04-18T10:00:52.110Z,0.60
2023-04-18T10:03:21.272Z,0.73
2023-04-18T10:05:49.948Z,0.50
2023-04-18T10:08:19.480Z,0.60
2023-04-18T10:10:47.452Z,0.60
2023-04-18T10:13:15.715Z,0.95
2023-04-18T10:15:45.525Z,1.30
2023-04-18T10:18:16.113Z,0.90
2023-04-18T10:20:44.429Z,0.80
2023-04-18T10:23:37.298Z,1.52
2023-04-18T10:26:06.773Z,0.57
2023-04-18T10:28:55.141Z,0.40
2023-04-18T10:31:23.796Z,0.68
2023-04-18T10:34:04.076Z,1.27
2023-04-18T10:36:33.764Z,1.00
2023-04-18T10:39:20.355Z,0.80
2023-04-18T10:41:50.985Z,0.90
2023-04-18T10:44:22.239Z,0.90
2023-04-18T10:47:22.841Z,0.95
2023-04-18T10:50:01.549Z,0.88
2023-04-18T10:52:30.317Z,1.00
2023-04-18T10:55:25.346Z,0.40
2023-04-18T10:57:56.047Z,0.73
2023-04-18T11:00:24.637Z,0.88
2023-04-18T11:02:56.014Z,0.75
2023-04-18T11:05:25.940Z,1.08
2023-04-18T11:07:54.561Z,0.40
2023-04-18T11:10:26.368Z,0.80
2023-04-18T11:12:55.901Z,0.70
2023-04-18T11:15:24.869Z,0.50
2023-04-18T11:18:00.704Z,0.90
2023-04-18T11:20:29.547Z,0.95
2023-04-18T11:22:58.646Z,1.15
2023-04-18T11:25:30.146Z,0.90
2023-04-18T11:28:00.354Z,0.80
2023-04-18T11:30:29.176Z,0.63
2023-04-18T11:32:57.061Z,0.85
2023-04-18T11:35:25.036Z,0.75
2023-04-18T11:37:55.343Z,0.50
2023-04-18T11:40:23.296Z,0.57
2023-04-18T11:42:55.645Z,1.33
2023-04-18T11:45:23.633Z,0.88
2023-04-18T11:47:58.241Z,0.93
2023-04-18T11:50:26.776Z,0.70
2023-04-18T11:52:55.609Z,0.93
2023-04-18T11:55:25.076Z,0.40
2023-04-18T11:57:56.873Z,0.60
2023-04-18T12:00:33.722Z,0.43
2023-04-18T12:03:04.494Z,0.70
2023-04-18T12:05:35.363Z,0.50
2023-04-18T12:08:07.947Z,0.70
2023-04-18T12:10:36.814Z,0.40
2023-04-18T12:13:09.461Z,1.00
2023-04-18T12:15:40.359Z,0.60
2023-04-18T12:18:09.242Z,0.50
2023-04-18T12:20:39.450Z,0.65
2023-04-18T12:23:07.903Z,0.50
2023-04-18T12:25:36.394Z,0.50
2023-04-18T12:28:13.783Z,0.55
2023-04-18T12:30:43.556Z,0.40
2023-04-18T12:33:12.544Z,0.63
2023-04-18T12:35:43.456Z,0.70
2023-04-18T12:38:11.275Z,0.50
2023-04-18T12:40:40.704Z,0.50
2023-04-18T12:43:08.940Z,0.40
2023-04-18T12:45:36.733Z,0.43
2023-04-18T12:48:06.408Z,0.50
2023-04-18T12:50:34.641Z,0.50
2023-04-18T12:53:02.545Z,0.60
2023-04-18T12:55:30.779Z,0.50
2023-04-18T12:57:59.009Z,0.60
2023-04-18T13:00:28.212Z,0.50
2023-04-18T13:02:56.428Z,0.88
2023-04-18T13:05:29.927Z,0.80
2023-04-18T13:08:15.253Z,0.55
2023-04-18T13:10:46.043Z,0.50
2023-04-18T13:13:14.095Z,0.50
2023-04-18T13:15:42.498Z,0.80
2023-04-18T13:18:10.394Z,0.55
2023-04-18T13:20:39.568Z,0.70
2023-04-18T13:23:07.411Z,1.27
2023-04-18T13:25:35.275Z,0.70
2023-04-18T13:28:03.161Z,0.50
2023-04-18T13:30:31.910Z,0.60
2023-04-18T13:32:59.849Z,1.60
2023-04-18T13:35:27.676Z,0.93
2023-04-18T13:37:56.870Z,0.55
2023-04-18T13:40:25.178Z,0.68
2023-04-18T13:42:53.096Z,0.75
2023-04-18T13:45:21.456Z,1.17
2023-04-18T13:47:49.380Z,1.00
2023-04-18T13:50:17.339Z,0.60
2023-04-18T13:52:46.165Z,0.90
2023-04-18T13:55:16.092Z,0.70
2023-04-18T13:57:43.892Z,0.60
2023-04-18T14:00:14.149Z,0.60
2023-04-18T14:02:42.475Z,0.90
2023-04-18T14:05:10.949Z,0.68
2023-04-18T14:07:39.192Z,0.80
2023-04-18T14:10:08.127Z,0.65
2023-04-18T14:12:37.465Z,0.50
2023-04-18T14:15:06.298Z,0.52
2023-04-18T14:17:34.129Z,0.60
2023-04-18T14:20:02.332Z,0.85
2023-04-18T14:22:30.208Z,0.70
2023-04-18T14:24:58.130Z,0.50
2023-04-18T14:27:26.461Z,0.75
2023-04-18T14:29:55.624Z,0.63
2023-04-18T14:32:23.478Z,0.75
2023-04-18T14:34:51.820Z,0.70
2023-04-18T14:37:19.630Z,0.40
2023-04-18T14:39:48.350Z,0.50
2023-04-18T14:42:17.050Z,0.60
2023-04-18T14:44:44.905Z,0.77
2023-04-18T14:47:14.148Z,1.58
2023-04-18T14:49:42.017Z,0.93
2023-04-18T14:52:09.855Z,0.60
2023-04-18T14:54:37.680Z,1.17
2023-04-18T14:57:08.037Z,0.90
2023-04-18T14:59:35.863Z,0.65
2023-04-18T15:02:03.774Z,1.40
2023-04-18T15:04:33.067Z,0.68
2023-04-18T15:07:01.795Z,0.80
2023-04-18T15:09:29.992Z,0.82
2023-04-18T15:11:58.177Z,0.90
2023-04-18T15:14:26.009Z,1.00
2023-04-18T15:16:54.125Z,1.55
2023-04-18T15:19:22.036Z,0.80
2023-04-18T15:21:51.202Z,1.38
2023-04-18T15:24:19.472Z,1.30
2023-04-18T15:26:47.304Z,0.90
2023-04-18T15:29:15.250Z,0.60
2023-04-18T15:31:43.140Z,0.70
2023-04-18T15:34:12.487Z,0.95
2023-04-18T15:36:41.423Z,1.02
2023-04-18T15:39:10.653Z,0.57
2023-04-18T15:41:39.064Z,1.27
2023-04-18T15:44:08.051Z,0.80
2023-04-18T15:46:36.115Z,0.80
2023-04-18T15:49:04.022Z,1.25
2023-04-18T15:51:31.899Z,0.65
2023-04-18T15:53:59.728Z,1.20
2023-04-18T15:56:30.092Z,0.70
2023-04-18T15:59:00.156Z,0.82
2023-04-18T16:01:28.252Z,0.60
2023-04-18T16:03:56.279Z,1.40
2023-04-18T16:06:24.288Z,0.63
2023-04-18T16:08:52.132Z,0.60
2023-04-18T16:11:21.443Z,0.70
2023-04-18T16:13:50.660Z,0.90
2023-04-18T16:16:18.508Z,1.42
2023-04-18T16:18:46.636Z,0.60
2023-04-18T16:21:15.249Z,0.68
2023-04-18T16:23:43.115Z,1.42
2023-04-18T16:26:10.968Z,1.25
2023-04-18T16:28:38.821Z,0.60
2023-04-18T16:31:08.093Z,1.05
2023-04-18T16:33:36.154Z,0.85
2023-04-18T16:36:04.532Z,0.50
2023-04-18T16:38:32.542Z,1.35
2023-04-18T16:41:01.478Z,0.68
2023-04-18T16:43:30.918Z,1.05
2023-04-18T16:46:00.298Z,1.10
2023-04-18T16:48:30.029Z,1.70
2023-04-18T16:50:57.944Z,1.10
2023-04-18T16:53:26.067Z,0.70
2023-04-18T16:55:54.518Z,0.70
2023-04-18T16:58:23.447Z,1.10
2023-04-18T17:00:52.499Z,0.82
2023-04-18T17:03:20.484Z,0.88
2023-04-18T17:05:49.799Z,0.60
2023-04-18T17:08:17.869Z,0.85
2023-04-18T17:10:45.780Z,1.35
2023-04-18T17:13:13.609Z,0.85
2023-04-18T17:15:42.838Z,1.15
2023-04-18T17:18:10.712Z,1.67
2023-04-18T17:20:38.770Z,0.75
2023-04-18T17:23:07.940Z,0.65
2023-04-18T17:25:36.528Z,0.60
2023-04-18T17:28:04.506Z,0.70
2023-04-18T17:30:32.340Z,0.75
2023-04-18T17:33:00.309Z,0.80
2023-04-18T17:35:28.218Z,0.82
2023-04-18T17:37:56.115Z,0.60
2023-04-18T17:40:25.583Z,0.50
2023-04-18T17:42:53.420Z,0.57
2023-04-18T17:45:21.328Z,0.70
2023-04-18T17:47:49.901Z,0.90
2023-04-18T17:50:17.808Z,0.50
2023-04-18T17:52:46.374Z,0.57
2023-04-18T17:55:14.505Z,0.70
2023-04-18T17:57:43.682Z,1.25
2023-04-18T18:00:13.677Z,0.80
2023-04-18T18:02:42.755Z,1.45
2023-04-18T18:05:14.069Z,0.73
2023-04-18T18:07:43.206Z,0.98
2023-04-18T18:10:12.182Z,0.50
2023-04-18T18:12:40.940Z,0.40
2023-04-18T18:15:11.165Z,0.93
2023-04-18T18:17:39.047Z,0.60
2023-04-18T18:20:09.768Z,0.50
2023-04-18T18:22:38.020Z,0.60
2023-04-18T18:25:06.729Z,0.60
2023-04-18T18:27:34.667Z,1.10
2023-04-18T18:30:02.556Z,1.30
2023-04-18T18:32:31.810Z,0.85
2023-04-18T18:34:59.836Z,1.25
2023-04-18T18:37:27.884Z,0.80
2023-04-18T18:39:56.162Z,0.90
2023-04-18T18:42:24.066Z,0.90
2023-04-18T18:44:52.472Z,0.73
2023-04-18T18:47:20.277Z,0.90
2023-04-18T18:49:49.507Z,0.60
2023-04-18T18:52:17.272Z,1.42
2023-04-18T18:54:45.171Z,1.08
2023-04-18T18:57:13.099Z,1.02
2023-04-18T18:59:41.463Z,0.70
2023-04-18T19:02:09.400Z,1.75
2023-04-18T19:04:37.451Z,1.17
2023-04-18T19:07:07.218Z,0.70
2023-04-18T19:09:36.728Z,0.77
2023-04-18T19:12:05.064Z,1.30
2023-04-18T19:14:32.869Z,1.00
2023-04-18T19:17:00.708Z,0.52
2023-04-18T19:19:28.567Z,1.00
2023-04-18T19:21:56.398Z,1.50
2023-04-18T19:24:25.994Z,1.13
2023-04-18T19:26:53.812Z,0.77
2023-04-18T19:29:23.083Z,0.90
2023-04-18T19:31:51.467Z,2.15
2023-04-18T19:34:19.783Z,0.90
2023-04-18T19:36:47.589Z,0.70
2023-04-18T19:39:16.279Z,0.90
2023-04-18T19:41:45.978Z,0.65
2023-04-18T19:44:13.819Z,1.23
2023-04-18T19:46:41.594Z,0.93
2023-04-18T19:49:09.471Z,1.20
2023-04-18T19:51:37.298Z,1.33
2023-04-18T19:54:05.654Z,1.25
2023-04-18T19:56:33.488Z,0.80
2023-04-18T19:59:04.685Z,0.60
2023-04-18T20:01:32.805Z,0.77
2023-04-18T20:04:01.164Z,0.95
2023-04-18T20:06:29.399Z,0.77
2023-04-18T20:08:57.377Z,1.20
2023-04-18T20:11:25.796Z,0.95
2023-04-18T20:13:55.564Z,1.27
2023-04-18T20:16:24.717Z,0.80
2023-04-18T20:18:54.819Z,0.70
2023-04-18T20:21:22.941Z,0.88
2023-04-18T20:23:51.086Z,0.63
2023-04-18T20:26:19.325Z,0.73
2023-04-18T20:28:47.196Z,1.80
2023-04-18T20:31:15.245Z,0.80
2023-04-18T20:33:44.577Z,1.80
2023-04-18T20:36:14.017Z,0.98
2023-04-18T20:38:41.953Z,0.75
2023-04-18T20:41:18.266Z,1.08
2023-04-18T20:43:46.826Z,0.70
2023-04-18T20:46:16.075Z,1.27
2023-04-18T20:48:45.446Z,0.80
2023-04-18T20:51:13.313Z,0.73
2023-04-18T20:53:41.194Z,1.15
2023-04-18T20:56:09.078Z,1.33
2023-04-18T20:58:37.060Z,1.08
2023-04-18T21:01:05.038Z,0.88
2023-04-18T21:03:33.057Z,1.15
2023-04-18T21:06:02.726Z,1.55
2023-04-18T21:08:31.673Z,1.05
2023-04-18T21:10:59.477Z,0.90
2023-04-18T21:13:27.345Z,1.10
2023-04-18T21:15:57.034Z,0.80
2023-04-18T21:18:25.082Z,0.73
2023-04-18T21:20:53.127Z,0.88
2023-04-18T21:23:24.520Z,0.80
2023-04-18T21:25:52.398Z,0.70
2023-04-18T21:28:21.163Z,0.93
2023-04-18T21:30:49.108Z,1.20
2023-04-18T21:33:19.227Z,0.82
2023-04-18T21:35:47.073Z,1.17
2023-04-18T21:38:14.988Z,0.80
2023-04-18T21:40:44.260Z,0.50
2023-04-18T21:43:12.160Z,1.25
2023-04-18T21:45:40.267Z,1.23
2023-04-18T21:48:10.448Z,0.77
2023-04-18T21:50:38.398Z,1.02
2023-04-18T21:53:06.347Z,1.38
2023-04-18T21:55:34.365Z,1.20
2023-04-18T21:58:03.577Z,0.65
2023-04-18T22:00:31.580Z,0.63
2023-04-18T22:02:59.618Z,0.90
2023-04-18T22:05:27.877Z,0.75
2023-04-18T22:07:58.488Z,0.80
2023-04-18T22:10:26.734Z,0.70
2023-04-18T22:12:55.823Z,0.70
2023-04-18T22:15:26.894Z,1.42
2023-04-18T22:17:55.063Z,0.80
2023-04-18T22:20:43.067Z,1.13
2023-04-18T22:23:11.304Z,1.13
2023-04-18T22:25:39.373Z,0.80
2023-04-18T22:28:15.514Z,0.60
2023-04-18T22:30:44.903Z,0.80
2023-04-18T22:33:12.809Z,0.82
2023-04-18T22:35:40.863Z,0.93
2023-04-18T22:38:10.122Z,0.68
2023-04-18T22:40:38.063Z,0.70
2023-04-18T22:43:12.642Z,0.75
2023-04-18T22:45:40.589Z,0.60
2023-04-18T22:48:12.188Z,0.60
2023-04-18T22:50:42.559Z,1.63
2023-04-18T22:53:10.990Z,0.80
2023-04-18T22:55:45.940Z,0.90
2023-04-18T22:58:14.212Z,0.50
2023-04-18T23:00:42.247Z,0.55
2023-04-18T23:03:32.423Z,0.60
2023-04-18T23:06:00.525Z,0.70
2023-04-18T23:08:28.900Z,0.85
2023-04-18T23:10:56.842Z,0.60
2023-04-18T23:13:24.797Z,0.40
2023-04-18T23:15:52.694Z,0.70
2023-04-18T23:18:20.554Z,0.70
2023-04-18T23:20:49.834Z,1.15
2023-04-18T23:23:17.673Z,1.33
2023-04-18T23:25:45.556Z,0.40
2023-04-18T23:28:14.477Z,0.77
2023-04-18T23:30:42.370Z,0.40
2023-04-18T23:33:10.495Z,0.40
2023-04-18T23:35:38.957Z,0.88
2023-04-18T23:38:08.191Z,2.10
2023-04-18T23:40:36.277Z,1.25
2023-04-18T23:43:05.911Z,0.80
2023-04-18T23:45:33.818Z,0.95
2023-04-18T23:48:01.806Z,0.60
2023-04-18T23:50:29.724Z,0.60
2023-04-18T23:52:57.577Z,1.23
2023-04-18T23:55:26.744Z,0.68
2023-04-18T23:57:55.990Z,0.65
